sensor_id;sensor_type;location;lat;lon;timestamp;temperature;humidity
39017;DHT22;24784;45.582;5.276;2023-04-03T00:02:08;7.90;99.90
39017;DHT22;24784;45.582;5.276;2023-04-03T00:04:34;7.80;99.90
39017;DHT22;24784;45.582;5.276;2023-04-03T00:07:00;7.80;99.90
39017;DHT22;24784;45.582;5.276;2023-04-03T00:09:26;7.80;99.90
39017;DHT22;24784;45.582;5.276;2023-04-03T00:11:51;7.80;99.90
39017;DHT22;24784;45.582;5.276;2023-04-03T00:14:17;7.80;99.90
39017;DHT22;24784;45.582;5.276;2023-04-03T00:16:43;7.90;99.90
39017;DHT22;24784;45.582;5.276;2023-04-03T00:19:09;7.90;99.90
39017;DHT22;24784;45.582;5.276;2023-04-03T00:21:37;7.90;99.90
39017;DHT22;24784;45.582;5.276;2023-04-03T00:24:03;7.80;99.90
39017;DHT22;24784;45.582;5.276;2023-04-03T00:26:29;7.80;99.90
39017;DHT22;24784;45.582;5.276;2023-04-03T00:28:55;7.70;99.90
39017;DHT22;24784;45.582;5.276;2023-04-03T00:31:21;7.70;99.90
39017;DHT22;24784;45.582;5.276;2023-04-03T00:33:47;7.80;99.90
39017;DHT22;24784;45.582;5.276;2023-04-03T00:36:13;7.80;99.90
39017;DHT22;24784;45.582;5.276;2023-04-03T00:38:39;7.70;99.90
39017;DHT22;24784;45.582;5.276;2023-04-03T00:41:06;7.70;99.90
39017;DHT22;24784;45.582;5.276;2023-04-03T00:43:32;7.70;99.90
39017;DHT22;24784;45.582;5.276;2023-04-03T00:45:59;7.70;99.90
39017;DHT22;24784;45.582;5.276;2023-04-03T00:51:00;7.70;99.90
39017;DHT22;24784;45.582;5.276;2023-04-03T00:53:31;7.80;99.90
39017;DHT22;24784;45.582;5.276;2023-04-03T00:55:59;7.70;99.90
39017;DHT22;24784;45.582;5.276;2023-04-03T00:58:33;7.70;99.90
39017;DHT22;24784;45.582;5.276;2023-04-03T01:01:05;7.70;99.90
39017;DHT22;24784;45.582;5.276;2023-04-03T01:03:32;7.70;99.90
39017;DHT22;24784;45.582;5.276;2023-04-03T01:05:58;7.70;99.90
39017;DHT22;24784;45.582;5.276;2023-04-03T01:08:24;7.70;99.90
39017;DHT22;24784;45.582;5.276;2023-04-03T01:10:50;7.70;99.90
39017;DHT22;24784;45.582;5.276;2023-04-03T01:13:27;7.70;99.90
39017;DHT22;24784;45.582;5.276;2023-04-03T01:15:53;7.80;99.90
39017;DHT22;24784;45.582;5.276;2023-04-03T01:18:20;7.80;99.90
39017;DHT22;24784;45.582;5.276;2023-04-03T01:26:35;7.80;99.90
39017;DHT22;24784;45.582;5.276;2023-04-03T01:29:02;7.80;99.90
39017;DHT22;24784;45.582;5.276;2023-04-03T01:34:18;7.80;99.90
39017;DHT22;24784;45.582;5.276;2023-04-03T01:36:43;7.80;99.90
39017;DHT22;24784;45.582;5.276;2023-04-03T01:39:10;7.70;99.90
39017;DHT22;24784;45.582;5.276;2023-04-03T01:41:36;7.80;99.90
39017;DHT22;24784;45.582;5.276;2023-04-03T01:44:02;7.70;99.90
39017;DHT22;24784;45.582;5.276;2023-04-03T01:46:29;7.70;99.90
39017;DHT22;24784;45.582;5.276;2023-04-03T01:48:55;7.70;99.90
39017;DHT22;24784;45.582;5.276;2023-04-03T01:51:21;7.70;99.90
39017;DHT22;24784;45.582;5.276;2023-04-03T01:53:47;7.70;99.90
39017;DHT22;24784;45.582;5.276;2023-04-03T01:56:12;7.70;99.90
39017;DHT22;24784;45.582;5.276;2023-04-03T01:58:38;7.70;99.90
39017;DHT22;24784;45.582;5.276;2023-04-03T02:01:05;7.70;99.90
39017;DHT22;24784;45.582;5.276;2023-04-03T02:03:31;7.70;99.90
39017;DHT22;24784;45.582;5.276;2023-04-03T02:05:58;7.70;99.90
39017;DHT22;24784;45.582;5.276;2023-04-03T02:08:24;7.70;99.90
39017;DHT22;24784;45.582;5.276;2023-04-03T02:10:50;7.70;99.90
39017;DHT22;24784;45.582;5.276;2023-04-03T02:13:17;7.70;99.90
39017;DHT22;24784;45.582;5.276;2023-04-03T02:15:43;7.70;99.90
39017;DHT22;24784;45.582;5.276;2023-04-03T02:18:09;7.80;99.90
39017;DHT22;24784;45.582;5.276;2023-04-03T02:20:35;7.80;99.90
39017;DHT22;24784;45.582;5.276;2023-04-03T02:23:01;7.70;99.90
39017;DHT22;24784;45.582;5.276;2023-04-03T02:25:27;7.70;99.90
39017;DHT22;24784;45.582;5.276;2023-04-03T02:27:53;7.70;99.90
39017;DHT22;24784;45.582;5.276;2023-04-03T02:30:19;7.70;99.90
39017;DHT22;24784;45.582;5.276;2023-04-03T02:32:45;7.70;99.90
39017;DHT22;24784;45.582;5.276;2023-04-03T02:35:11;7.70;99.90
39017;DHT22;24784;45.582;5.276;2023-04-03T02:37:37;7.70;99.90
39017;DHT22;24784;45.582;5.276;2023-04-03T02:40:04;7.70;99.90
39017;DHT22;24784;45.582;5.276;2023-04-03T02:42:32;7.60;99.90
39017;DHT22;24784;45.582;5.276;2023-04-03T02:44:58;7.70;99.90
39017;DHT22;24784;45.582;5.276;2023-04-03T02:47:26;7.60;99.90
39017;DHT22;24784;45.582;5.276;2023-04-03T02:49:52;7.70;99.90
39017;DHT22;24784;45.582;5.276;2023-04-03T02:52:18;7.60;99.90
39017;DHT22;24784;45.582;5.276;2023-04-03T02:54:44;7.70;99.90
39017;DHT22;24784;45.582;5.276;2023-04-03T02:57:10;7.70;99.90
39017;DHT22;24784;45.582;5.276;2023-04-03T02:59:36;7.70;99.90
39017;DHT22;24784;45.582;5.276;2023-04-03T03:02:08;7.70;99.90
39017;DHT22;24784;45.582;5.276;2023-04-03T03:04:35;7.70;99.90
39017;DHT22;24784;45.582;5.276;2023-04-03T03:07:01;7.70;99.90
39017;DHT22;24784;45.582;5.276;2023-04-03T03:09:26;7.70;99.90
39017;DHT22;24784;45.582;5.276;2023-04-03T03:11:52;7.70;99.90
39017;DHT22;24784;45.582;5.276;2023-04-03T03:14:18;7.70;99.90
39017;DHT22;24784;45.582;5.276;2023-04-03T03:16:44;7.60;99.90
39017;DHT22;24784;45.582;5.276;2023-04-03T03:19:10;7.70;99.90
39017;DHT22;24784;45.582;5.276;2023-04-03T03:21:36;7.70;99.90
39017;DHT22;24784;45.582;5.276;2023-04-03T03:24:02;7.70;99.90
39017;DHT22;24784;45.582;5.276;2023-04-03T03:26:28;7.70;99.90
39017;DHT22;24784;45.582;5.276;2023-04-03T03:28:54;7.70;99.90
39017;DHT22;24784;45.582;5.276;2023-04-03T03:31:20;7.60;99.90
39017;DHT22;24784;45.582;5.276;2023-04-03T03:33:46;7.60;99.90
39017;DHT22;24784;45.582;5.276;2023-04-03T03:36:14;7.70;99.90
39017;DHT22;24784;45.582;5.276;2023-04-03T03:38:40;7.60;99.90
39017;DHT22;24784;45.582;5.276;2023-04-03T03:41:05;7.70;99.90
39017;DHT22;24784;45.582;5.276;2023-04-03T03:43:31;7.60;99.90
39017;DHT22;24784;45.582;5.276;2023-04-03T03:45:57;7.70;99.90
39017;DHT22;24784;45.582;5.276;2023-04-03T03:48:23;7.70;99.90
39017;DHT22;24784;45.582;5.276;2023-04-03T03:50:50;7.70;99.90
39017;DHT22;24784;45.582;5.276;2023-04-03T03:53:15;7.60;99.90
39017;DHT22;24784;45.582;5.276;2023-04-03T03:55:41;7.70;99.90
39017;DHT22;24784;45.582;5.276;2023-04-03T03:58:08;7.60;99.90
39017;DHT22;24784;45.582;5.276;2023-04-03T04:00:33;7.60;99.90
39017;DHT22;24784;45.582;5.276;2023-04-03T04:02:59;7.60;99.90
39017;DHT22;24784;45.582;5.276;2023-04-03T04:05:26;7.60;99.90
39017;DHT22;24784;45.582;5.276;2023-04-03T04:07:51;7.60;99.90
39017;DHT22;24784;45.582;5.276;2023-04-03T04:10:17;7.60;99.90
39017;DHT22;24784;45.582;5.276;2023-04-03T04:12:43;7.60;99.90
39017;DHT22;24784;45.582;5.276;2023-04-03T04:15:09;7.60;99.90
39017;DHT22;24784;45.582;5.276;2023-04-03T04:17:35;7.60;99.90
39017;DHT22;24784;45.582;5.276;2023-04-03T04:20:02;7.60;99.90
39017;DHT22;24784;45.582;5.276;2023-04-03T04:22:30;7.60;99.90
39017;DHT22;24784;45.582;5.276;2023-04-03T04:24:56;7.60;99.90
39017;DHT22;24784;45.582;5.276;2023-04-03T04:27:22;7.60;99.90
39017;DHT22;24784;45.582;5.276;2023-04-03T04:29:48;7.60;99.90
39017;DHT22;24784;45.582;5.276;2023-04-03T04:32:14;7.50;99.90
39017;DHT22;24784;45.582;5.276;2023-04-03T04:34:40;7.60;99.90
39017;DHT22;24784;45.582;5.276;2023-04-03T04:37:05;7.50;99.90
39017;DHT22;24784;45.582;5.276;2023-04-03T04:39:31;7.50;99.90
39017;DHT22;24784;45.582;5.276;2023-04-03T04:41:57;7.50;99.90
39017;DHT22;24784;45.582;5.276;2023-04-03T04:44:23;7.50;99.90
39017;DHT22;24784;45.582;5.276;2023-04-03T04:46:49;7.50;99.90
39017;DHT22;24784;45.582;5.276;2023-04-03T04:49:14;7.50;99.90
39017;DHT22;24784;45.582;5.276;2023-04-03T04:51:40;7.60;99.90
39017;DHT22;24784;45.582;5.276;2023-04-03T04:54:06;7.60;99.90
39017;DHT22;24784;45.582;5.276;2023-04-03T04:56:32;7.50;99.90
39017;DHT22;24784;45.582;5.276;2023-04-03T04:58:57;7.60;99.90
39017;DHT22;24784;45.582;5.276;2023-04-03T05:01:23;7.50;99.90
39017;DHT22;24784;45.582;5.276;2023-04-03T05:03:49;7.50;99.90
39017;DHT22;24784;45.582;5.276;2023-04-03T05:06:15;7.50;99.90
39017;DHT22;24784;45.582;5.276;2023-04-03T05:08:41;7.60;99.90
39017;DHT22;24784;45.582;5.276;2023-04-03T05:11:07;7.50;99.90
39017;DHT22;24784;45.582;5.276;2023-04-03T05:13:32;7.50;99.90
39017;DHT22;24784;45.582;5.276;2023-04-03T05:15:58;7.50;99.90
39017;DHT22;24784;45.582;5.276;2023-04-03T05:18:24;7.50;99.90
39017;DHT22;24784;45.582;5.276;2023-04-03T05:20:50;7.60;99.90
39017;DHT22;24784;45.582;5.276;2023-04-03T05:23:17;7.60;99.90
39017;DHT22;24784;45.582;5.276;2023-04-03T05:25:43;7.60;99.90
39017;DHT22;24784;45.582;5.276;2023-04-03T05:28:11;7.50;99.90
39017;DHT22;24784;45.582;5.276;2023-04-03T05:30:36;7.50;99.90
39017;DHT22;24784;45.582;5.276;2023-04-03T05:33:02;7.60;99.90
39017;DHT22;24784;45.582;5.276;2023-04-03T05:35:28;7.60;99.90
39017;DHT22;24784;45.582;5.276;2023-04-03T05:37:54;7.50;99.90
39017;DHT22;24784;45.582;5.276;2023-04-03T05:40:20;7.50;99.90
39017;DHT22;24784;45.582;5.276;2023-04-03T05:42:46;7.60;99.90
39017;DHT22;24784;45.582;5.276;2023-04-03T05:45:12;7.60;99.90
39017;DHT22;24784;45.582;5.276;2023-04-03T05:47:38;7.60;99.90
39017;DHT22;24784;45.582;5.276;2023-04-03T05:50:04;7.60;99.90
39017;DHT22;24784;45.582;5.276;2023-04-03T05:52:34;7.50;99.90
39017;DHT22;24784;45.582;5.276;2023-04-03T05:55:01;7.60;99.90
39017;DHT22;24784;45.582;5.276;2023-04-03T05:57:27;7.60;99.90
39017;DHT22;24784;45.582;5.276;2023-04-03T05:59:53;7.70;99.90
39017;DHT22;24784;45.582;5.276;2023-04-03T06:02:22;7.70;99.90
39017;DHT22;24784;45.582;5.276;2023-04-03T06:04:48;7.70;99.90
39017;DHT22;24784;45.582;5.276;2023-04-03T06:07:23;7.70;99.90
39017;DHT22;24784;45.582;5.276;2023-04-03T06:09:50;7.70;99.90
39017;DHT22;24784;45.582;5.276;2023-04-03T06:12:19;7.70;99.90
39017;DHT22;24784;45.582;5.276;2023-04-03T06:14:45;7.70;99.90
39017;DHT22;24784;45.582;5.276;2023-04-03T06:17:11;7.70;99.90
39017;DHT22;24784;45.582;5.276;2023-04-03T06:19:37;7.70;99.90
39017;DHT22;24784;45.582;5.276;2023-04-03T06:22:03;7.70;99.90
39017;DHT22;24784;45.582;5.276;2023-04-03T06:24:30;7.80;99.90
39017;DHT22;24784;45.582;5.276;2023-04-03T06:26:57;7.80;99.90
39017;DHT22;24784;45.582;5.276;2023-04-03T06:29:23;7.80;99.90
39017;DHT22;24784;45.582;5.276;2023-04-03T06:31:50;7.80;99.90
39017;DHT22;24784;45.582;5.276;2023-04-03T06:34:16;7.80;99.90
39017;DHT22;24784;45.582;5.276;2023-04-03T06:36:44;7.90;99.90
39017;DHT22;24784;45.582;5.276;2023-04-03T06:39:15;7.80;99.90
39017;DHT22;24784;45.582;5.276;2023-04-03T06:41:42;7.90;99.90
39017;DHT22;24784;45.582;5.276;2023-04-03T06:44:08;7.90;99.90
39017;DHT22;24784;45.582;5.276;2023-04-03T06:46:37;7.90;99.90
39017;DHT22;24784;45.582;5.276;2023-04-03T06:49:03;7.90;99.90
39017;DHT22;24784;45.582;5.276;2023-04-03T06:51:30;7.90;99.90
39017;DHT22;24784;45.582;5.276;2023-04-03T06:53:59;7.90;99.90
39017;DHT22;24784;45.582;5.276;2023-04-03T06:56:25;8.00;99.90
39017;DHT22;24784;45.582;5.276;2023-04-03T06:58:53;8.00;99.90
39017;DHT22;24784;45.582;5.276;2023-04-03T07:01:20;8.00;99.90
39017;DHT22;24784;45.582;5.276;2023-04-03T07:03:47;8.00;99.90
39017;DHT22;24784;45.582;5.276;2023-04-03T07:06:15;8.00;99.90
39017;DHT22;24784;45.582;5.276;2023-04-03T07:08:41;8.00;99.90
39017;DHT22;24784;45.582;5.276;2023-04-03T07:11:08;8.00;99.90
39017;DHT22;24784;45.582;5.276;2023-04-03T07:13:35;8.00;99.90
39017;DHT22;24784;45.582;5.276;2023-04-03T07:16:02;8.00;99.90
39017;DHT22;24784;45.582;5.276;2023-04-03T07:18:29;8.10;99.90
39017;DHT22;24784;45.582;5.276;2023-04-03T07:20:55;8.10;99.90
39017;DHT22;24784;45.582;5.276;2023-04-03T07:23:22;8.10;99.90
39017;DHT22;24784;45.582;5.276;2023-04-03T07:25:49;8.10;99.90
39017;DHT22;24784;45.582;5.276;2023-04-03T07:28:16;8.10;99.90
39017;DHT22;24784;45.582;5.276;2023-04-03T07:30:47;8.10;99.90
39017;DHT22;24784;45.582;5.276;2023-04-03T07:33:17;8.20;99.90
39017;DHT22;24784;45.582;5.276;2023-04-03T07:35:43;8.10;99.90
39017;DHT22;24784;45.582;5.276;2023-04-03T07:38:09;8.10;99.90
39017;DHT22;24784;45.582;5.276;2023-04-03T07:40:36;8.20;99.90
39017;DHT22;24784;45.582;5.276;2023-04-03T07:43:02;8.20;99.90
39017;DHT22;24784;45.582;5.276;2023-04-03T07:45:28;8.20;99.90
39017;DHT22;24784;45.582;5.276;2023-04-03T07:47:54;8.20;99.90
39017;DHT22;24784;45.582;5.276;2023-04-03T07:50:19;8.20;99.90
39017;DHT22;24784;45.582;5.276;2023-04-03T07:52:45;8.20;99.90
39017;DHT22;24784;45.582;5.276;2023-04-03T07:55:11;8.20;99.90
39017;DHT22;24784;45.582;5.276;2023-04-03T07:57:37;8.20;99.90
39017;DHT22;24784;45.582;5.276;2023-04-03T08:00:04;8.10;99.90
39017;DHT22;24784;45.582;5.276;2023-04-03T08:02:31;8.10;99.90
39017;DHT22;24784;45.582;5.276;2023-04-03T08:04:58;8.10;99.90
39017;DHT22;24784;45.582;5.276;2023-04-03T08:07:24;8.20;99.90
39017;DHT22;24784;45.582;5.276;2023-04-03T08:09:51;8.10;99.90
39017;DHT22;24784;45.582;5.276;2023-04-03T08:12:17;8.10;99.90
39017;DHT22;24784;45.582;5.276;2023-04-03T08:14:42;8.10;99.90
39017;DHT22;24784;45.582;5.276;2023-04-03T08:17:08;8.20;99.90
39017;DHT22;24784;45.582;5.276;2023-04-03T08:19:38;8.20;99.90
39017;DHT22;24784;45.582;5.276;2023-04-03T08:22:04;8.10;99.90
39017;DHT22;24784;45.582;5.276;2023-04-03T08:24:34;8.00;99.90
39017;DHT22;24784;45.582;5.276;2023-04-03T08:27:00;8.10;99.90
39017;DHT22;24784;45.582;5.276;2023-04-03T08:29:26;8.00;99.90
39017;DHT22;24784;45.582;5.276;2023-04-03T08:31:52;8.10;99.90
39017;DHT22;24784;45.582;5.276;2023-04-03T08:34:18;8.10;99.90
39017;DHT22;24784;45.582;5.276;2023-04-03T08:36:45;8.00;99.90
39017;DHT22;24784;45.582;5.276;2023-04-03T08:39:11;8.10;99.90
39017;DHT22;24784;45.582;5.276;2023-04-03T08:41:39;8.20;99.90
39017;DHT22;24784;45.582;5.276;2023-04-03T08:49:43;8.20;99.90
39017;DHT22;24784;45.582;5.276;2023-04-03T08:52:18;8.20;99.90
39017;DHT22;24784;45.582;5.276;2023-04-03T08:54:57;8.30;99.90
39017;DHT22;24784;45.582;5.276;2023-04-03T08:57:34;8.40;99.90
39017;DHT22;24784;45.582;5.276;2023-04-03T09:00:06;8.40;99.90
39017;DHT22;24784;45.582;5.276;2023-04-03T09:02:43;8.30;99.90
39017;DHT22;24784;45.582;5.276;2023-04-03T09:05:16;8.40;99.90
39017;DHT22;24784;45.582;5.276;2023-04-03T09:08:00;8.30;99.90
39017;DHT22;24784;45.582;5.276;2023-04-03T09:10:29;8.50;99.90
39017;DHT22;24784;45.582;5.276;2023-04-03T09:13:30;8.50;99.90
39017;DHT22;24784;45.582;5.276;2023-04-03T09:16:00;8.40;99.90
39017;DHT22;24784;45.582;5.276;2023-04-03T09:18:30;8.40;99.90
39017;DHT22;24784;45.582;5.276;2023-04-03T09:21:23;8.50;99.90
39017;DHT22;24784;45.582;5.276;2023-04-03T09:23:52;8.60;99.90
39017;DHT22;24784;45.582;5.276;2023-04-03T09:29:17;8.50;99.90
39017;DHT22;24784;45.582;5.276;2023-04-03T09:31:44;8.60;99.90
39017;DHT22;24784;45.582;5.276;2023-04-03T09:34:25;8.60;99.90
39017;DHT22;24784;45.582;5.276;2023-04-03T09:36:54;8.50;99.90
39017;DHT22;24784;45.582;5.276;2023-04-03T09:39:26;8.40;99.90
39017;DHT22;24784;45.582;5.276;2023-04-03T09:41:59;8.40;99.90
39017;DHT22;24784;45.582;5.276;2023-04-03T09:44:31;8.50;99.90
39017;DHT22;24784;45.582;5.276;2023-04-03T09:46:58;8.50;99.90
39017;DHT22;24784;45.582;5.276;2023-04-03T09:49:25;8.60;99.90
39017;DHT22;24784;45.582;5.276;2023-04-03T09:51:51;8.60;99.90
39017;DHT22;24784;45.582;5.276;2023-04-03T09:54:37;8.60;99.90
39017;DHT22;24784;45.582;5.276;2023-04-03T09:57:08;8.70;99.90
39017;DHT22;24784;45.582;5.276;2023-04-03T09:59:34;8.70;99.90
39017;DHT22;24784;45.582;5.276;2023-04-03T10:02:04;8.80;99.90
39017;DHT22;24784;45.582;5.276;2023-04-03T10:04:41;8.80;99.90
39017;DHT22;24784;45.582;5.276;2023-04-03T10:10:01;8.80;99.90
39017;DHT22;24784;45.582;5.276;2023-04-03T10:12:28;8.70;99.90
39017;DHT22;24784;45.582;5.276;2023-04-03T10:14:59;8.70;99.90
39017;DHT22;24784;45.582;5.276;2023-04-03T10:20:35;8.70;99.90
39017;DHT22;24784;45.582;5.276;2023-04-03T10:28:35;8.50;99.90
39017;DHT22;24784;45.582;5.276;2023-04-03T10:31:19;8.60;99.90
39017;DHT22;24784;45.582;5.276;2023-04-03T10:39:43;8.70;99.90
39017;DHT22;24784;45.582;5.276;2023-04-03T10:46:22;8.60;99.90
39017;DHT22;24784;45.582;5.276;2023-04-03T10:48:53;8.60;99.90
39017;DHT22;24784;45.582;5.276;2023-04-03T10:51:41;8.50;99.90
39017;DHT22;24784;45.582;5.276;2023-04-03T10:56:56;8.50;99.90
39017;DHT22;24784;45.582;5.276;2023-04-03T10:59:35;8.60;99.90
39017;DHT22;24784;45.582;5.276;2023-04-03T11:02:07;8.50;99.90
39017;DHT22;24784;45.582;5.276;2023-04-03T11:04:36;8.50;99.90
39017;DHT22;24784;45.582;5.276;2023-04-03T11:07:22;8.40;99.90
39017;DHT22;24784;45.582;5.276;2023-04-03T11:09:54;8.30;99.90
39017;DHT22;24784;45.582;5.276;2023-04-03T11:12:40;8.20;99.90
39017;DHT22;24784;45.582;5.276;2023-04-03T11:15:12;8.20;99.90
39017;DHT22;24784;45.582;5.276;2023-04-03T11:17:47;8.20;99.90
39017;DHT22;24784;45.582;5.276;2023-04-03T11:23:26;8.20;99.90
39017;DHT22;24784;45.582;5.276;2023-04-03T11:25:59;8.20;99.90
39017;DHT22;24784;45.582;5.276;2023-04-03T11:28:27;8.20;99.90
39017;DHT22;24784;45.582;5.276;2023-04-03T11:36:19;8.20;99.90
39017;DHT22;24784;45.582;5.276;2023-04-03T11:38:49;8.10;99.90
39017;DHT22;24784;45.582;5.276;2023-04-03T11:41:17;8.20;99.90
39017;DHT22;24784;45.582;5.276;2023-04-03T11:44:33;8.10;99.90
39017;DHT22;24784;45.582;5.276;2023-04-03T11:47:01;8.20;99.90
39017;DHT22;24784;45.582;5.276;2023-04-03T11:50:02;8.20;99.90
39017;DHT22;24784;45.582;5.276;2023-04-03T12:14:03;8.20;99.90
39017;DHT22;24784;45.582;5.276;2023-04-03T12:24:27;8.30;99.90
39017;DHT22;24784;45.582;5.276;2023-04-03T12:46:26;8.20;99.90
39017;DHT22;24784;45.582;5.276;2023-04-03T12:48:56;8.20;99.90
39017;DHT22;24784;45.582;5.276;2023-04-03T12:51:38;8.30;99.90
39017;DHT22;24784;45.582;5.276;2023-04-03T12:54:27;8.40;99.90
39017;DHT22;24784;45.582;5.276;2023-04-03T12:57:23;8.40;99.90
39017;DHT22;24784;45.582;5.276;2023-04-03T12:59:49;8.40;99.90
39017;DHT22;24784;45.582;5.276;2023-04-03T13:02:27;8.40;99.90
39017;DHT22;24784;45.582;5.276;2023-04-03T13:04:57;8.30;99.90
39017;DHT22;24784;45.582;5.276;2023-04-03T13:07:32;8.20;99.90
39017;DHT22;24784;45.582;5.276;2023-04-03T13:12:49;8.30;99.90
39017;DHT22;24784;45.582;5.276;2023-04-03T13:17:44;8.20;99.90
39017;DHT22;24784;45.582;5.276;2023-04-03T13:20:31;8.30;99.90
39017;DHT22;24784;45.582;5.276;2023-04-03T13:23:02;8.40;99.90
39017;DHT22;24784;45.582;5.276;2023-04-03T13:25:32;8.40;99.90
39017;DHT22;24784;45.582;5.276;2023-04-03T13:28:01;8.50;99.90
39017;DHT22;24784;45.582;5.276;2023-04-03T13:30:34;8.60;99.90
39017;DHT22;24784;45.582;5.276;2023-04-03T13:33:04;8.60;99.90
39017;DHT22;24784;45.582;5.276;2023-04-03T13:35:37;8.60;99.90
39017;DHT22;24784;45.582;5.276;2023-04-03T13:40:53;8.80;99.90
39017;DHT22;24784;45.582;5.276;2023-04-03T13:43:24;8.90;99.90
39017;DHT22;24784;45.582;5.276;2023-04-03T13:48:26;9.00;99.90
39017;DHT22;24784;45.582;5.276;2023-04-03T13:51:04;9.10;99.90
39017;DHT22;24784;45.582;5.276;2023-04-03T13:53:33;9.10;99.90
39017;DHT22;24784;45.582;5.276;2023-04-03T13:56:04;9.10;99.90
39017;DHT22;24784;45.582;5.276;2023-04-03T13:58:32;9.20;99.90
39017;DHT22;24784;45.582;5.276;2023-04-03T14:01:18;9.30;99.90
39017;DHT22;24784;45.582;5.276;2023-04-03T14:04:00;9.30;99.90
39017;DHT22;24784;45.582;5.276;2023-04-03T14:06:28;9.40;99.90
39017;DHT22;24784;45.582;5.276;2023-04-03T14:08:54;9.40;99.90
39017;DHT22;24784;45.582;5.276;2023-04-03T14:11:28;9.30;99.90
39017;DHT22;24784;45.582;5.276;2023-04-03T14:13:54;9.40;99.90
39017;DHT22;24784;45.582;5.276;2023-04-03T14:16:26;9.40;99.90
39017;DHT22;24784;45.582;5.276;2023-04-03T14:18:53;9.50;99.90
39017;DHT22;24784;45.582;5.276;2023-04-03T14:21:20;9.50;99.90
39017;DHT22;24784;45.582;5.276;2023-04-03T14:23:46;9.50;99.90
39017;DHT22;24784;45.582;5.276;2023-04-03T14:26:21;9.60;99.90
39017;DHT22;24784;45.582;5.276;2023-04-03T14:28:50;9.60;99.90
39017;DHT22;24784;45.582;5.276;2023-04-03T14:31:18;9.70;99.90
39017;DHT22;24784;45.582;5.276;2023-04-03T14:33:45;9.70;99.90
39017;DHT22;24784;45.582;5.276;2023-04-03T14:36:14;9.70;99.90
39017;DHT22;24784;45.582;5.276;2023-04-03T14:38:41;9.70;99.90
39017;DHT22;24784;45.582;5.276;2023-04-03T14:41:07;9.70;99.90
39017;DHT22;24784;45.582;5.276;2023-04-03T14:43:33;9.70;99.90
39017;DHT22;24784;45.582;5.276;2023-04-03T14:45:59;9.70;99.90
39017;DHT22;24784;45.582;5.276;2023-04-03T14:48:27;9.70;99.90
39017;DHT22;24784;45.582;5.276;2023-04-03T14:50:53;9.70;99.90
39017;DHT22;24784;45.582;5.276;2023-04-03T14:53:19;9.70;99.90
39017;DHT22;24784;45.582;5.276;2023-04-03T14:55:48;9.70;99.90
39017;DHT22;24784;45.582;5.276;2023-04-03T14:58:17;9.70;99.90
39017;DHT22;24784;45.582;5.276;2023-04-03T15:00:44;9.70;99.90
39017;DHT22;24784;45.582;5.276;2023-04-03T15:03:28;9.70;99.90
39017;DHT22;24784;45.582;5.276;2023-04-03T15:05:54;9.70;99.90
39017;DHT22;24784;45.582;5.276;2023-04-03T15:08:27;9.60;99.90
39017;DHT22;24784;45.582;5.276;2023-04-03T15:10:58;9.60;99.90
39017;DHT22;24784;45.582;5.276;2023-04-03T15:13:24;9.60;99.90
39017;DHT22;24784;45.582;5.276;2023-04-03T15:15:51;9.50;99.90
39017;DHT22;24784;45.582;5.276;2023-04-03T15:18:23;9.60;99.90
39017;DHT22;24784;45.582;5.276;2023-04-03T15:20:49;9.60;99.90
39017;DHT22;24784;45.582;5.276;2023-04-03T15:23:16;9.60;99.90
39017;DHT22;24784;45.582;5.276;2023-04-03T15:25:46;9.50;99.90
39017;DHT22;24784;45.582;5.276;2023-04-03T15:28:41;9.50;99.90
39017;DHT22;24784;45.582;5.276;2023-04-03T15:31:08;9.40;99.90
39017;DHT22;24784;45.582;5.276;2023-04-03T15:33:35;9.40;99.90
39017;DHT22;24784;45.582;5.276;2023-04-03T15:36:01;9.50;99.90
39017;DHT22;24784;45.582;5.276;2023-04-03T15:38:27;9.50;99.90
39017;DHT22;24784;45.582;5.276;2023-04-03T15:40:54;9.50;99.90
39017;DHT22;24784;45.582;5.276;2023-04-03T15:43:21;9.50;99.90
39017;DHT22;24784;45.582;5.276;2023-04-03T15:45:47;9.50;99.90
39017;DHT22;24784;45.582;5.276;2023-04-03T15:48:15;9.40;99.90
39017;DHT22;24784;45.582;5.276;2023-04-03T15:50:42;9.40;99.90
39017;DHT22;24784;45.582;5.276;2023-04-03T15:53:08;9.40;99.90
39017;DHT22;24784;45.582;5.276;2023-04-03T15:55:36;9.40;99.90
39017;DHT22;24784;45.582;5.276;2023-04-03T15:58:02;9.40;99.90
39017;DHT22;24784;45.582;5.276;2023-04-03T16:00:29;9.40;99.90
39017;DHT22;24784;45.582;5.276;2023-04-03T16:03:00;9.40;99.90
39017;DHT22;24784;45.582;5.276;2023-04-03T16:05:27;9.40;99.90
39017;DHT22;24784;45.582;5.276;2023-04-03T16:07:53;9.40;99.90
39017;DHT22;24784;45.582;5.276;2023-04-03T16:10:20;9.40;99.90
39017;DHT22;24784;45.582;5.276;2023-04-03T16:12:46;9.40;99.90
39017;DHT22;24784;45.582;5.276;2023-04-03T16:15:13;9.40;99.90
39017;DHT22;24784;45.582;5.276;2023-04-03T16:17:39;9.40;99.90
39017;DHT22;24784;45.582;5.276;2023-04-03T16:20:09;9.30;99.90
39017;DHT22;24784;45.582;5.276;2023-04-03T16:22:36;9.30;99.90
39017;DHT22;24784;45.582;5.276;2023-04-03T16:25:03;9.30;99.90
39017;DHT22;24784;45.582;5.276;2023-04-03T16:27:28;9.30;99.90
39017;DHT22;24784;45.582;5.276;2023-04-03T16:29:57;9.30;99.90
39017;DHT22;24784;45.582;5.276;2023-04-03T16:32:23;9.30;99.90
39017;DHT22;24784;45.582;5.276;2023-04-03T16:34:50;9.30;99.90
39017;DHT22;24784;45.582;5.276;2023-04-03T16:37:17;9.30;99.90
39017;DHT22;24784;45.582;5.276;2023-04-03T16:39:43;9.30;99.90
39017;DHT22;24784;45.582;5.276;2023-04-03T16:42:08;9.20;99.90
39017;DHT22;24784;45.582;5.276;2023-04-03T16:44:35;9.20;99.90
39017;DHT22;24784;45.582;5.276;2023-04-03T16:47:02;9.20;99.90
39017;DHT22;24784;45.582;5.276;2023-04-03T16:49:28;9.20;99.90
39017;DHT22;24784;45.582;5.276;2023-04-03T16:51:58;9.10;99.90
39017;DHT22;24784;45.582;5.276;2023-04-03T16:54:24;9.10;99.90
39017;DHT22;24784;45.582;5.276;2023-04-03T16:56:50;9.00;99.90
39017;DHT22;24784;45.582;5.276;2023-04-03T16:59:16;9.00;99.90
39017;DHT22;24784;45.582;5.276;2023-04-03T17:01:42;9.00;99.90
39017;DHT22;24784;45.582;5.276;2023-04-03T17:04:08;9.00;99.90
39017;DHT22;24784;45.582;5.276;2023-04-03T17:06:34;9.00;99.90
39017;DHT22;24784;45.582;5.276;2023-04-03T17:09:00;9.00;99.90
39017;DHT22;24784;45.582;5.276;2023-04-03T17:11:29;9.00;99.90
39017;DHT22;24784;45.582;5.276;2023-04-03T17:13:55;9.10;99.90
39017;DHT22;24784;45.582;5.276;2023-04-03T17:16:21;9.10;99.90
39017;DHT22;24784;45.582;5.276;2023-04-03T17:18:47;9.10;99.90
39017;DHT22;24784;45.582;5.276;2023-04-03T17:21:14;9.00;99.90
39017;DHT22;24784;45.582;5.276;2023-04-03T17:23:44;9.10;99.90
39017;DHT22;24784;45.582;5.276;2023-04-03T17:26:10;9.00;99.90
39017;DHT22;24784;45.582;5.276;2023-04-03T17:28:36;9.00;99.90
39017;DHT22;24784;45.582;5.276;2023-04-03T17:31:02;8.90;99.90
39017;DHT22;24784;45.582;5.276;2023-04-03T17:33:28;8.90;99.90
39017;DHT22;24784;45.582;5.276;2023-04-03T17:35:59;8.90;99.90
39017;DHT22;24784;45.582;5.276;2023-04-03T17:38:27;8.80;99.90
39017;DHT22;24784;45.582;5.276;2023-04-03T17:41:01;8.80;99.90
39017;DHT22;24784;45.582;5.276;2023-04-03T17:43:28;8.70;99.90
39017;DHT22;24784;45.582;5.276;2023-04-03T17:45:55;8.70;99.90